Search for airport 
image banner adimage banner adimage banner ad
image banner ad

35TT - Blackwater

Located in Temecula, United States

ICAO - 35TT, IATA -

Data provided by Airmate  

General information

Coordinates: N32°28'25" W97°30'6"
Elevation is 978 feet MSL.
 
View others Airports in California

Operational data

Special qualification required
Current time UTC:
Current local time:
Weather at : KCPT - Cleburne Rgnl ( 15 km )
METAR: KCPT 240835Z AUTO 17010KT 8SM CLR 26/25 A2997 RMK A01
View NOTAMs / SUP AIP / TFR affecting this airport [VIEW]
Communications frequencies: [VIEW]

Runways:

RWY identifierQFULength (ft)Width (ft)SurfaceLDA (ft)
17211035GRASS
35211035GRASS

Airport contact information

Address: Temecula United States

Satellite view of 35TT